KMOD/MOD METAR and TAF weather

Enter ICAO airport designator
Station Type Date Time Source
KMOD METAR 2022/06/30 12:53 UTC NOAA

KMOD 301253Z AUTO 35005KT 10SM CLR 14/11 A2996 RMK AO2 SLP144 T01390111


Station Type Date Time Source
KMOD Decoded METAR 2022/06/30 12:53 UTC NOAA

MODESTO CITY CO SHAM FLD, CA, United States (KMOD) 37-37N 120-57W 29M
Jun 30, 2022 - 08:53 AM EDT / 2022.06.30 1253 UTC
Wind: from the N (350 degrees) at 6 MPH (5 KT):0
Visibility: 10 mile(s):0
Sky conditions: clear
Temperature: 57.0 F (13.9 C)
Dew Point: 52.0 F (11.1 C)
Relative Humidity: 83%
Pressure (altimeter): 29.96 in. Hg (1014 hPa)
ob: KMOD 301253Z AUTO 35005KT 10SM CLR 14/11 A2996 RMK AO2 SLP144 T01390111
cycle: 13

Station Type Date Time Source
KMOD TAF 2022/06/30 12:24 UTC NOAA

TAF KMOD 301120Z 3012/0112 33009KT P6SM SKC
FM010000 33010G17KT P6SM SKC
FM010500 33008KT P6SM SKC

Example: see airport list